Hlavní strana
METAR-TAF:

METAR-TAF

Letiště :

Kajaani, Finsko

zeměpisná šířka: 64-17N, zeměpisná délka: 027-41E, výška: 143 m

Aktuální stav počasí

Zpráva byla vytvořena před 11 minutami, v 18:20 UTC
Jižní vítr 2 kt
Teplota -24°C
Vlhkost vzduchu 76%
Tlak 996 hPa
Viditelnost 10 km a více
Žádná oblačnost pod 1500 m, nevyskytují se cumulonimby.

METAR: EFKI 181820Z AUTO 19002KT CAVOK M24/M27 Q0996

Čas: 20:31 (18:31 UTC)

Předpověď počasí

Zpráva byla vytvořena před 54 minutami, v 17:37 UTC
Předpověď platná od 18 v 18 UTC do 18 v 22 UTC
vítr z různých směrů 2 kt
Viditelnost 10 km a více
Skoro jasno ve výšce 200 ft
Polojasno ve výšce 4000 ft
Dočasný
od 18 v 18 UTC do 18 v 22 UTC
Viditelnost: 6000 m
slabé sněžení
Pravděpodobnost 30%
od 18 v 18 UTC do 18 v 22 UTC
Viditelnost: 3000 m
Oblačno až skoro zataženo ve výšce 200 ft
kouřmo

TAF: EFKI 181737Z 1818/1822 VRB02KT 9999 FEW002 SCT040 TEMPO 1818/1822 6000 -SN PROB30 1818/1822 3000 BR BKN002

Stav a předpovědi počasí z více než 4 000 letišť (zprávy METAR a TAF).

Červené a žluté tečky na mapě představují dostupné meteorologické stanice.

Když kurzor umístíte na tečku, zobrazí se název stanice.

Pak kliknutím zobrazíte stav a předpověď počasí.

Chcete-li změnit mapu, kliknutím na zelené tlačítko se znaménkem +mapu přiblížíte, kliknutím na zelené tlačítko se znaménkem – mapu oddálíte a kliknutím na zelené šipky přejdete na sousední mapy.


METAR-TAF: